createdAt,value
2019-05-19T00:02:09.003Z,95.00
2019-05-19T00:04:37.440Z,94.70
2019-05-19T00:07:05.972Z,94.70
2019-05-19T00:09:34.460Z,94.60
2019-05-19T00:12:03.082Z,94.20
2019-05-19T00:14:31.560Z,94.30
2019-05-19T00:17:00.005Z,93.80
2019-05-19T00:19:28.560Z,93.90
2019-05-19T00:21:57.001Z,94.20
2019-05-19T00:24:25.432Z,94.10
2019-05-19T00:26:53.882Z,94.50
2019-05-19T00:29:22.310Z,94.80
2019-05-19T00:31:50.759Z,97.40
2019-05-19T00:34:19.366Z,98.90
2019-05-19T00:36:47.865Z,99.40
2019-05-19T00:39:16.348Z,99.50
2019-05-19T00:41:44.790Z,99.40
2019-05-19T00:44:13.245Z,98.70
2019-05-19T00:46:41.751Z,97.70
2019-05-19T00:49:10.172Z,97.00
2019-05-19T00:51:38.852Z,97.80
2019-05-19T00:54:07.281Z,97.90
2019-05-19T00:56:37.068Z,98.50
2019-05-19T00:59:05.947Z,98.00
2019-05-19T01:01:34.406Z,97.80
2019-05-19T01:04:02.833Z,97.60
2019-05-19T01:06:31.372Z,98.00
2019-05-19T01:08:59.806Z,98.20
2019-05-19T01:11:28.284Z,97.70
2019-05-19T01:13:56.764Z,97.30
2019-05-19T01:16:25.204Z,96.90
2019-05-19T01:18:53.632Z,96.90
2019-05-19T01:21:22.433Z,96.20
2019-05-19T01:23:50.888Z,94.70
2019-05-19T01:26:19.508Z,95.60
2019-05-19T01:28:48.367Z,96.90
2019-05-19T01:31:17.541Z,98.10
2019-05-19T01:33:46.302Z,98.40
2019-05-19T01:36:14.849Z,98.90
2019-05-19T01:38:43.359Z,99.00
2019-05-19T01:41:11.889Z,99.10
2019-05-19T01:43:40.333Z,99.10
2019-05-19T01:46:08.825Z,98.60
2019-05-19T01:48:37.266Z,98.90
2019-05-19T01:51:05.768Z,99.00
2019-05-19T01:53:34.201Z,99.30
2019-05-19T01:56:02.645Z,99.30
2019-05-19T01:58:31.073Z,99.50
2019-05-19T02:00:59.550Z,99.30
2019-05-19T02:03:28.512Z,99.10
2019-05-19T02:05:56.948Z,98.80
2019-05-19T02:08:25.466Z,98.30
2019-05-19T02:10:53.895Z,97.80
2019-05-19T02:13:22.321Z,97.70
2019-05-19T02:15:50.815Z,98.10
2019-05-19T02:18:19.417Z,98.40
2019-05-19T02:20:47.864Z,97.70
2019-05-19T02:23:16.388Z,97.90
2019-05-19T02:25:44.812Z,98.00
2019-05-19T02:28:13.253Z,98.10
2019-05-19T02:30:41.700Z,97.60
2019-05-19T02:33:10.130Z,97.50
2019-05-19T02:35:38.635Z,97.50
2019-05-19T02:38:07.077Z,97.30
2019-05-19T02:40:38.888Z,97.20
2019-05-19T02:43:07.853Z,97.20
2019-05-19T02:45:37.950Z,97.50
2019-05-19T02:48:07.042Z,98.40
2019-05-19T02:50:51.393Z,98.60
2019-05-19T02:53:08.685Z,98.50
2019-05-19T02:55:37.553Z,98.40
2019-05-19T02:58:06.650Z,98.50
2019-05-19T03:00:37.595Z,98.20
2019-05-19T03:03:06.633Z,97.40
2019-05-19T03:05:36.094Z,97.30
2019-05-19T03:08:04.840Z,97.30
2019-05-19T03:10:33.260Z,97.70
2019-05-19T03:13:01.700Z,97.70
2019-05-19T03:15:30.153Z,98.10
2019-05-19T03:17:58.660Z,98.50
2019-05-19T03:20:27.090Z,98.70
2019-05-19T03:22:55.546Z,98.60
2019-05-19T03:25:23.980Z,98.50
2019-05-19T03:27:52.480Z,98.50
2019-05-19T03:30:28.767Z,98.50
2019-05-19T03:33:01.530Z,98.00
2019-05-19T03:35:29.967Z,97.50
2019-05-19T03:37:58.426Z,97.50
2019-05-19T03:40:27.055Z,97.20
2019-05-19T03:42:55.541Z,98.10
2019-05-19T03:45:24.032Z,98.00
2019-05-19T03:47:52.465Z,98.10
2019-05-19T03:50:20.890Z,98.20
2019-05-19T03:52:49.341Z,98.10
2019-05-19T03:55:17.830Z,98.40
2019-05-19T03:57:46.390Z,98.30
2019-05-19T04:00:15.574Z,98.10
2019-05-19T04:02:44.004Z,95.90
2019-05-19T04:05:13.470Z,97.00
2019-05-19T04:07:41.962Z,97.40
2019-05-19T04:10:10.930Z,96.00
2019-05-19T04:12:39.370Z,96.80
2019-05-19T04:15:08.070Z,98.10
2019-05-19T04:17:36.625Z,98.30
2019-05-19T04:20:07.265Z,98.00
2019-05-19T04:22:35.788Z,98.50
2019-05-19T04:25:05.068Z,98.50
2019-05-19T04:27:33.567Z,97.70
2019-05-19T04:30:02.145Z,97.70
2019-05-19T04:32:30.648Z,97.20
2019-05-19T04:35:00.037Z,96.40
2019-05-19T04:37:28.556Z,95.60
2019-05-19T04:39:56.982Z,95.30
2019-05-19T04:42:25.410Z,95.30
2019-05-19T04:44:53.950Z,95.00
2019-05-19T04:47:22.382Z,94.60
2019-05-19T04:49:50.824Z,95.00
2019-05-19T04:52:19.342Z,94.40
2019-05-19T04:54:47.769Z,94.00
2019-05-19T04:57:16.204Z,92.40
2019-05-19T04:59:44.694Z,92.60
2019-05-19T05:02:13.123Z,93.30
2019-05-19T05:04:41.625Z,93.90
2019-05-19T05:07:10.093Z,91.30
2019-05-19T05:09:38.530Z,88.60
2019-05-19T05:12:07.027Z,87.50
2019-05-19T05:14:35.529Z,82.30
2019-05-19T05:17:05.818Z,87.80
2019-05-19T05:19:34.700Z,86.10
2019-05-19T05:22:03.233Z,87.00
2019-05-19T05:24:31.806Z,87.00
2019-05-19T05:27:00.224Z,84.30
2019-05-19T05:29:28.693Z,79.80
2019-05-19T05:31:57.121Z,83.30
2019-05-19T05:34:25.573Z,72.60
2019-05-19T05:36:54.024Z,55.90
2019-05-19T05:39:22.477Z,61.60
2019-05-19T05:41:50.893Z,65.00
2019-05-19T05:44:19.427Z,14.90
2019-05-19T05:46:47.856Z,2.70
2019-05-19T05:49:16.281Z,1.30
2019-05-19T05:51:44.720Z,1.00
2019-05-19T05:54:13.153Z,99.90
2019-05-19T05:56:41.581Z,99.90
2019-05-19T05:59:10.033Z,1.00
2019-05-19T06:01:38.539Z,1.00
2019-05-19T06:04:07.292Z,99.90
2019-05-19T06:06:35.737Z,1.00
2019-05-19T06:09:05.905Z,15.00
2019-05-19T06:11:34.373Z,99.90
2019-05-19T06:14:02.917Z,4.80
2019-05-19T06:16:31.435Z,99.90
2019-05-19T06:18:59.970Z,99.90
2019-05-19T06:21:28.509Z,99.90
2019-05-19T06:23:56.960Z,99.90
2019-05-19T06:26:25.428Z,1.00
2019-05-19T06:28:53.945Z,99.90
2019-05-19T06:31:22.367Z,1.00
2019-05-19T06:33:50.821Z,99.90
2019-05-19T06:36:19.285Z,99.90
2019-05-19T06:38:47.760Z,1.00
2019-05-19T06:41:16.217Z,1.00
2019-05-19T06:43:44.841Z,1.00
2019-05-19T06:46:13.261Z,1.00
2019-05-19T06:48:41.784Z,99.90
2019-05-19T06:51:10.308Z,99.90
2019-05-19T06:53:38.869Z,1.00
2019-05-19T06:56:07.361Z,99.90
2019-05-19T06:58:35.890Z,99.90
2019-05-19T07:01:04.330Z,1.00
2019-05-19T07:03:32.868Z,1.00
2019-05-19T07:06:01.425Z,99.90
2019-05-19T07:08:29.861Z,49.00
2019-05-19T07:10:58.285Z,14.30
2019-05-19T07:13:26.884Z,1.00
2019-05-19T07:15:55.320Z,1.00
2019-05-19T07:18:23.828Z,1.00
2019-05-19T07:20:52.353Z,1.00
2019-05-19T07:23:28.340Z,99.90
2019-05-19T07:25:50.942Z,17.70
2019-05-19T07:28:19.608Z,99.90
2019-05-19T07:30:48.080Z,99.90
2019-05-19T07:33:16.504Z,1.00
2019-05-19T07:35:45.075Z,99.90
2019-05-19T07:38:13.624Z,1.00
2019-05-19T07:40:42.125Z,1.00
2019-05-19T07:43:10.577Z,99.90
2019-05-19T07:45:39.006Z,99.90
2019-05-19T07:48:07.438Z,99.90
2019-05-19T07:50:38.125Z,73.20
2019-05-19T07:53:06.079Z,23.30
2019-05-19T07:55:34.667Z,4.80
2019-05-19T07:58:03.325Z,37.50
2019-05-19T08:00:31.823Z,76.40
2019-05-19T08:03:00.254Z,63.00
2019-05-19T08:05:28.696Z,99.90
2019-05-19T08:07:57.125Z,99.90
2019-05-19T08:10:25.563Z,99.90
2019-05-19T08:12:54.024Z,99.90
2019-05-19T08:15:22.452Z,99.90
2019-05-19T08:17:51.112Z,96.70
2019-05-19T08:20:19.761Z,11.10
2019-05-19T08:22:51.050Z,1.00
2019-05-19T08:25:18.413Z,1.00
2019-05-19T08:27:46.857Z,1.00
2019-05-19T08:30:15.857Z,1.00
2019-05-19T08:32:44.285Z,1.00
2019-05-19T08:35:12.801Z,1.00
2019-05-19T08:37:41.234Z,1.00
2019-05-19T08:40:10.015Z,1.00
2019-05-19T08:42:38.529Z,1.00
2019-05-19T08:45:10.269Z,1.00
2019-05-19T08:47:38.741Z,1.00
2019-05-19T08:50:07.889Z,1.00
2019-05-19T08:52:36.317Z,1.00
2019-05-19T08:55:06.645Z,1.00
2019-05-19T08:57:35.126Z,1.00
2019-05-19T09:00:05.228Z,1.00
2019-05-19T09:02:33.757Z,1.00
2019-05-19T09:05:02.205Z,1.00
2019-05-19T09:07:30.817Z,1.00
2019-05-19T09:09:59.257Z,1.00
2019-05-19T09:12:27.839Z,1.00
2019-05-19T09:14:56.355Z,1.00
2019-05-19T09:17:24.779Z,1.00
2019-05-19T09:19:53.298Z,1.00
2019-05-19T09:22:21.725Z,1.00
2019-05-19T09:24:50.234Z,1.00
2019-05-19T09:27:18.746Z,1.00
2019-05-19T09:29:47.165Z,1.00
2019-05-19T09:32:15.695Z,1.00
2019-05-19T09:34:44.221Z,1.00
2019-05-19T09:37:12.656Z,1.00
2019-05-19T09:39:41.081Z,1.00
2019-05-19T09:42:09.557Z,1.00
2019-05-19T09:44:37.982Z,1.00
2019-05-19T09:47:06.425Z,1.00
2019-05-19T09:49:39.003Z,1.00
2019-05-19T09:52:07.562Z,1.00
2019-05-19T09:54:44.777Z,1.00
2019-05-19T09:57:06.335Z,1.00
2019-05-19T09:59:34.957Z,1.00
2019-05-19T10:02:03.540Z,1.00
2019-05-19T10:04:31.984Z,1.00
2019-05-19T10:07:00.653Z,1.00
2019-05-19T10:09:44.756Z,1.00
2019-05-19T10:12:13.200Z,1.00
2019-05-19T10:14:41.632Z,1.00
2019-05-19T10:17:10.254Z,1.00
2019-05-19T10:19:38.868Z,1.00
2019-05-19T10:22:07.556Z,1.00
2019-05-19T10:24:36.177Z,1.00
2019-05-19T10:27:04.670Z,1.00
2019-05-19T10:29:33.171Z,1.00
2019-05-19T10:32:01.604Z,1.00
2019-05-19T10:34:30.036Z,1.00
2019-05-19T10:36:58.538Z,1.00
2019-05-19T10:39:27.085Z,1.00
2019-05-19T10:41:55.528Z,1.00
2019-05-19T10:44:23.989Z,1.00
2019-05-19T10:46:52.513Z,1.00
2019-05-19T10:49:21.005Z,1.00
2019-05-19T10:51:49.448Z,1.00
2019-05-19T10:54:17.917Z,1.00
2019-05-19T10:56:46.412Z,1.00
2019-05-19T10:59:14.840Z,1.00
2019-05-19T11:01:43.286Z,1.00
2019-05-19T11:04:11.982Z,1.00
2019-05-19T11:06:40.391Z,1.00
2019-05-19T11:09:08.902Z,1.00
2019-05-19T11:11:37.326Z,1.00
2019-05-19T11:14:05.953Z,1.00
2019-05-19T11:16:34.401Z,1.00
2019-05-19T11:19:02.821Z,1.00
2019-05-19T11:21:31.318Z,1.00
2019-05-19T11:23:59.774Z,1.00
2019-05-19T11:26:28.230Z,1.00
2019-05-19T11:28:56.680Z,1.00
2019-05-19T11:31:25.165Z,1.00
2019-05-19T11:33:53.594Z,1.00
2019-05-19T11:36:22.018Z,1.00
2019-05-19T11:38:50.457Z,1.00
2019-05-19T11:41:18.889Z,1.00
2019-05-19T11:43:47.402Z,1.00
2019-05-19T11:46:15.938Z,1.00
2019-05-19T11:48:44.464Z,1.00
2019-05-19T11:51:12.902Z,1.00
2019-05-19T11:53:41.445Z,1.00
2019-05-19T11:56:11.477Z,1.00
2019-05-19T11:58:40.269Z,1.00
2019-05-19T12:01:08.967Z,1.00
2019-05-19T12:03:37.442Z,1.00
2019-05-19T12:06:05.924Z,1.00
2019-05-19T12:08:34.387Z,99.90
2019-05-19T12:11:02.879Z,1.00
2019-05-19T12:13:34.992Z,1.00
2019-05-19T12:16:03.312Z,1.00
2019-05-19T12:18:31.752Z,99.90
2019-05-19T12:21:00.252Z,99.90
2019-05-19T12:23:28.699Z,1.00
2019-05-19T12:25:57.198Z,99.90
2019-05-19T12:28:25.631Z,99.90
2019-05-19T12:30:54.083Z,99.90
2019-05-19T12:33:22.530Z,99.90
2019-05-19T12:35:51.144Z,99.90
2019-05-19T12:38:19.688Z,99.90
2019-05-19T12:40:48.302Z,99.90
2019-05-19T12:43:16.860Z,99.90
2019-05-19T12:45:45.514Z,99.90
2019-05-19T12:48:14.027Z,99.90
2019-05-19T12:50:42.467Z,99.90
2019-05-19T12:53:10.982Z,99.90
2019-05-19T12:55:39.408Z,99.90
2019-05-19T12:58:07.840Z,99.90
2019-05-19T13:00:36.350Z,99.90
2019-05-19T13:03:04.863Z,99.90
2019-05-19T13:05:33.513Z,99.90
2019-05-19T13:08:01.981Z,99.90
2019-05-19T13:10:30.460Z,99.90
2019-05-19T13:12:58.881Z,99.90
2019-05-19T13:15:27.385Z,99.90
2019-05-19T13:17:55.813Z,99.90
2019-05-19T13:20:24.245Z,99.90
2019-05-19T13:22:52.693Z,99.90
2019-05-19T13:25:21.121Z,99.90
2019-05-19T13:27:49.579Z,99.90
2019-05-19T13:30:18.154Z,99.90
2019-05-19T13:32:46.581Z,99.90
2019-05-19T13:35:15.482Z,99.90
2019-05-19T13:37:43.960Z,99.90
2019-05-19T13:40:12.629Z,99.90
2019-05-19T13:42:41.112Z,99.90
2019-05-19T13:45:13.028Z,99.90
2019-05-19T13:47:41.457Z,99.90
2019-05-19T13:50:10.230Z,99.90
2019-05-19T13:52:39.058Z,99.90
2019-05-19T13:55:09.020Z,99.90
2019-05-19T13:57:37.463Z,99.90
2019-05-19T14:00:06.569Z,99.90
2019-05-19T14:02:35.114Z,99.90
2019-05-19T14:05:04.245Z,99.90
2019-05-19T14:07:32.765Z,99.90
2019-05-19T14:10:01.594Z,99.90
2019-05-19T14:12:30.093Z,99.90
2019-05-19T14:14:58.668Z,99.90
2019-05-19T14:17:27.217Z,99.90
2019-05-19T14:19:55.658Z,99.90
2019-05-19T14:22:24.135Z,99.90
2019-05-19T14:24:52.664Z,99.90
2019-05-19T14:27:29.638Z,99.90
2019-05-19T14:29:51.415Z,99.90
2019-05-19T14:32:20.025Z,99.90
2019-05-19T14:34:48.521Z,99.90
2019-05-19T14:37:17.117Z,99.90
2019-05-19T14:39:45.563Z,99.90
2019-05-19T14:42:15.697Z,99.90
2019-05-19T14:44:44.147Z,99.90
2019-05-19T14:47:12.717Z,99.90
2019-05-19T14:49:41.151Z,99.90
2019-05-19T14:52:09.593Z,99.90
2019-05-19T14:54:38.030Z,99.90
2019-05-19T14:57:06.471Z,99.90
2019-05-19T14:59:34.921Z,99.90
2019-05-19T15:02:03.354Z,99.90
2019-05-19T15:04:31.787Z,99.90
2019-05-19T15:07:00.357Z,99.90
2019-05-19T15:09:28.883Z,99.90
2019-05-19T15:11:57.373Z,99.90
2019-05-19T15:14:25.843Z,99.90
2019-05-19T15:16:54.324Z,1.00
2019-05-19T15:19:22.746Z,1.00
2019-05-19T15:21:51.268Z,1.00
2019-05-19T15:24:19.736Z,99.90
2019-05-19T15:26:48.232Z,1.00
2019-05-19T15:29:16.677Z,1.00
2019-05-19T15:31:45.191Z,1.00
2019-05-19T15:34:13.617Z,1.10
2019-05-19T15:36:42.097Z,12.80
2019-05-19T15:39:10.650Z,13.80
2019-05-19T15:41:39.144Z,25.60
2019-05-19T15:44:08.290Z,26.60
2019-05-19T15:46:36.781Z,37.20
2019-05-19T15:49:05.340Z,54.10
2019-05-19T15:51:37.772Z,48.90
2019-05-19T15:54:04.105Z,59.80
2019-05-19T15:56:32.538Z,53.90
2019-05-19T15:59:00.991Z,67.00
2019-05-19T16:01:29.427Z,54.10
2019-05-19T16:03:58.010Z,60.60
2019-05-19T16:06:26.611Z,67.30
2019-05-19T16:08:55.040Z,58.20
2019-05-19T16:11:23.637Z,70.60
2019-05-19T16:13:52.264Z,86.60
2019-05-19T16:16:20.749Z,74.20
2019-05-19T16:18:49.180Z,82.10
2019-05-19T16:21:17.657Z,90.30
2019-05-19T16:23:46.120Z,90.80
2019-05-19T16:26:14.661Z,92.80
2019-05-19T16:28:43.517Z,93.20
2019-05-19T16:31:11.965Z,94.50
2019-05-19T16:33:40.422Z,95.80
2019-05-19T16:36:08.981Z,95.10
2019-05-19T16:38:37.446Z,92.80
2019-05-19T16:41:06.017Z,90.10
2019-05-19T16:43:34.461Z,90.50
2019-05-19T16:46:02.948Z,90.30
2019-05-19T16:48:31.477Z,84.60
2019-05-19T16:50:59.954Z,91.10
2019-05-19T16:53:28.395Z,90.70
2019-05-19T16:55:56.892Z,90.20
2019-05-19T16:58:25.346Z,90.40
2019-05-19T17:00:53.787Z,90.30
2019-05-19T17:03:22.312Z,83.70
2019-05-19T17:05:50.771Z,90.40
2019-05-19T17:08:19.279Z,89.60
2019-05-19T17:10:47.796Z,91.00
2019-05-19T17:13:16.366Z,84.40
2019-05-19T17:15:44.812Z,79.70
2019-05-19T17:18:13.319Z,85.00
2019-05-19T17:20:41.762Z,77.70
2019-05-19T17:23:10.295Z,84.20
2019-05-19T17:25:38.915Z,85.60
2019-05-19T17:28:07.932Z,86.90
2019-05-19T17:30:36.436Z,64.30
2019-05-19T17:33:04.865Z,69.90
2019-05-19T17:35:33.473Z,68.50
2019-05-19T17:38:02.021Z,62.50
2019-05-19T17:40:30.455Z,72.90
2019-05-19T17:42:58.985Z,67.30
2019-05-19T17:45:27.588Z,70.00
2019-05-19T17:48:09.222Z,73.00
2019-05-19T17:50:33.750Z,71.30
2019-05-19T17:53:02.918Z,70.90
2019-05-19T17:55:35.886Z,74.00
2019-05-19T17:58:05.715Z,78.10
2019-05-19T18:00:42.206Z,78.90
2019-05-19T18:03:11.876Z,79.60
2019-05-19T18:05:40.517Z,74.30
2019-05-19T18:08:09.019Z,77.90
2019-05-19T18:10:37.669Z,82.90
2019-05-19T18:13:06.287Z,84.80
2019-05-19T18:15:35.443Z,87.30
2019-05-19T18:18:03.971Z,85.20
2019-05-19T18:20:32.554Z,88.70
2019-05-19T18:23:01.096Z,90.10
2019-05-19T18:25:29.784Z,88.60
2019-05-19T18:27:58.302Z,88.20
2019-05-19T18:30:26.898Z,87.50
2019-05-19T18:32:55.460Z,90.00
2019-05-19T18:35:24.051Z,91.60
2019-05-19T18:37:52.716Z,93.20
2019-05-19T18:40:21.717Z,92.00
2019-05-19T18:42:50.160Z,92.10
2019-05-19T18:45:18.921Z,92.10
2019-05-19T18:47:47.417Z,92.40
2019-05-19T18:50:16.002Z,92.50
2019-05-19T18:52:44.487Z,93.30
2019-05-19T18:55:13.205Z,95.50
2019-05-19T18:57:41.749Z,96.50
2019-05-19T19:00:12.080Z,96.40
2019-05-19T19:02:40.528Z,96.50
2019-05-19T19:05:09.201Z,95.60
2019-05-19T19:07:48.321Z,96.40
2019-05-19T19:10:16.809Z,96.10
2019-05-19T19:12:45.279Z,95.50
2019-05-19T19:15:13.926Z,95.60
2019-05-19T19:17:42.708Z,94.80
2019-05-19T19:20:11.725Z,95.30
2019-05-19T19:22:40.289Z,95.70
2019-05-19T19:25:09.288Z,96.60
2019-05-19T19:27:37.892Z,96.30
2019-05-19T19:30:07.538Z,96.90
2019-05-19T19:32:36.033Z,98.00
2019-05-19T19:35:06.396Z,98.80
2019-05-19T19:37:34.869Z,99.90
2019-05-19T19:40:05.175Z,99.90
2019-05-19T19:42:33.636Z,99.90
2019-05-19T19:45:02.249Z,98.90
2019-05-19T19:47:30.963Z,99.50
2019-05-19T19:49:59.362Z,99.40
2019-05-19T19:52:27.809Z,99.90
2019-05-19T19:54:56.242Z,99.90
2019-05-19T19:57:24.993Z,99.90
2019-05-19T19:59:53.567Z,99.90
2019-05-19T20:02:22.058Z,99.90
2019-05-19T20:04:50.481Z,99.90
2019-05-19T20:07:19.214Z,99.90
2019-05-19T20:09:47.744Z,99.90
2019-05-19T20:12:16.244Z,99.90
2019-05-19T20:14:44.768Z,99.90
2019-05-19T20:17:13.292Z,99.90
2019-05-19T20:19:41.757Z,99.90
2019-05-19T20:22:10.208Z,99.90
2019-05-19T20:24:38.653Z,99.90
2019-05-19T20:27:07.197Z,99.90
2019-05-19T20:29:35.667Z,99.90
2019-05-19T20:32:04.206Z,99.90
2019-05-19T20:34:32.660Z,99.90
2019-05-19T20:37:01.118Z,99.90
2019-05-19T20:39:29.544Z,99.90
2019-05-19T20:41:57.982Z,99.90
2019-05-19T20:44:26.437Z,99.90
2019-05-19T20:46:54.929Z,99.90
2019-05-19T20:49:23.378Z,99.90
2019-05-19T20:51:51.828Z,99.90
2019-05-19T20:54:20.324Z,99.90
2019-05-19T20:56:48.761Z,99.90
2019-05-19T20:59:17.209Z,99.90
2019-05-19T21:01:45.649Z,99.90
2019-05-19T21:04:14.104Z,99.90
2019-05-19T21:06:42.549Z,99.90
2019-05-19T21:09:10.981Z,99.90
2019-05-19T21:11:39.408Z,99.90
2019-05-19T21:14:07.859Z,99.90
2019-05-19T21:16:36.293Z,99.90
2019-05-19T21:19:04.721Z,99.90
2019-05-19T21:21:33.169Z,99.90
2019-05-19T21:24:01.769Z,99.90
2019-05-19T21:26:30.269Z,99.90
2019-05-19T21:28:58.719Z,99.90
2019-05-19T21:31:27.146Z,99.90
2019-05-19T21:33:55.574Z,99.90
2019-05-19T21:36:24.033Z,99.90
2019-05-19T21:38:52.480Z,99.90
2019-05-19T21:41:20.987Z,99.90
2019-05-19T21:43:49.545Z,99.90
2019-05-19T21:46:17.975Z,99.90
2019-05-19T21:48:46.409Z,99.90
2019-05-19T21:51:14.932Z,99.90
2019-05-19T21:53:43.389Z,99.90
2019-05-19T21:56:11.820Z,99.90
2019-05-19T21:58:40.277Z,99.90
2019-05-19T22:01:22.188Z,99.90
2019-05-19T22:03:39.547Z,99.90
2019-05-19T22:06:08.005Z,99.90
2019-05-19T22:08:36.437Z,99.90
2019-05-19T22:11:04.948Z,99.90
2019-05-19T22:13:33.605Z,99.90
2019-05-19T22:16:12.489Z,99.90
2019-05-19T22:18:32.296Z,99.90
2019-05-19T22:21:00.806Z,99.90
2019-05-19T22:23:29.298Z,99.90
2019-05-19T22:25:57.844Z,99.90
2019-05-19T22:28:26.296Z,99.90
2019-05-19T22:30:54.729Z,99.90
2019-05-19T22:33:23.149Z,99.90
2019-05-19T22:35:51.597Z,99.90
2019-05-19T22:38:20.031Z,99.90
2019-05-19T22:40:48.460Z,99.90
2019-05-19T22:43:16.907Z,99.90
2019-05-19T22:45:45.421Z,99.90
2019-05-19T22:48:13.844Z,99.90
2019-05-19T22:50:42.294Z,99.90
2019-05-19T22:53:10.767Z,99.90
2019-05-19T22:55:39.236Z,99.90
2019-05-19T22:58:07.690Z,99.90
2019-05-19T23:00:36.135Z,99.90
2019-05-19T23:03:04.694Z,99.90
2019-05-19T23:05:33.146Z,99.90
2019-05-19T23:08:01.574Z,99.90
2019-05-19T23:10:30.173Z,99.90
2019-05-19T23:12:58.622Z,99.90
2019-05-19T23:15:27.122Z,99.90
2019-05-19T23:17:55.549Z,99.90
2019-05-19T23:20:23.999Z,99.90
2019-05-19T23:22:52.477Z,99.90
2019-05-19T23:25:20.938Z,99.90
2019-05-19T23:27:49.454Z,99.90
2019-05-19T23:30:18.121Z,99.90
2019-05-19T23:32:46.553Z,99.90
2019-05-19T23:35:15.073Z,99.90
2019-05-19T23:37:43.505Z,99.90
2019-05-19T23:40:12.466Z,99.90
2019-05-19T23:42:40.913Z,99.90
2019-05-19T23:45:09.785Z,99.90
2019-05-19T23:47:38.300Z,99.90
2019-05-19T23:50:07.372Z,99.90
2019-05-19T23:52:35.876Z,99.90
2019-05-19T23:55:06.657Z,99.90
2019-05-19T23:57:35.124Z,99.90
